Time;durP1;ratioP1;P1;durP2;ratioP2;P2;SDS_P1;SDS_P2;PMS_P1;PMS_P2;Temp;Humidity;BMP_temperature;BMP_pressure;BME280_temperature;BME280_humidity;BME280_pressure;Samples;Min_cycle;Max_cycle;Signal;HPM_P1;HPM_P2
2022/03/09 00:02:24;;;;;;;;;57.25;45.75;;;;;8.88;88.05;101397.72;5114792;27;45070;-76
2022/03/09 00:04:49;;;;;;;;;60.50;47.75;;;;;8.46;87.33;101330.22;5125007;27;45191;-76
2022/03/09 00:07:15;;;;;;;;;57.25;46.25;;;;;8.71;88.61;101373.25;5119647;27;45404;-76
2022/03/09 00:09:40;;;;;;;;;57.75;45.75;;;;;8.90;89.19;101386.78;5116786;27;45791;-77
2022/03/09 00:12:06;;;;;;;;;55.25;39.75;;;;;8.91;89.87;101393.97;5121798;27;45154;-77
2022/03/09 00:14:31;;;;;;;;;52.75;41.25;;;;;8.90;91.92;101401.22;5128511;27;44861;-79
2022/03/09 00:16:57;;;;;;;;;58.00;42.25;;;;;8.72;90.52;101381.34;5128471;27;45404;-81
2022/03/09 00:19:22;;;;;;;;;63.00;48.75;;;;;7.92;91.31;101253.38;5132104;27;45272;-77
2022/03/09 00:21:48;;;;;;;;;56.75;42.00;;;;;8.86;92.79;101405.03;5120518;27;45166;-77
2022/03/09 00:24:14;;;;;;;;;65.75;47.00;;;;;8.51;91.98;101339.88;5121312;27;45195;-78
2022/03/09 00:26:40;;;;;;;;;60.25;47.25;;;;;8.86;91.03;101401.47;5129564;27;45379;-79
2022/03/09 00:29:06;;;;;;;;;60.50;47.00;;;;;7.87;89.08;101236.50;5119201;27;46027;-79
2022/03/09 00:31:31;;;;;;;;;60.50;46.00;;;;;7.83;91.54;101234.88;5119051;27;45256;-77
2022/03/09 00:33:57;;;;;;;;;54.75;44.25;;;;;8.21;91.51;101306.13;5122226;27;45149;-76
2022/03/09 00:36:22;;;;;;;;;59.75;47.25;;;;;8.68;91.81;101390.56;5121070;27;45000;-78
2022/03/09 00:38:47;;;;;;;;;58.75;45.75;;;;;7.33;90.25;101162.38;5108297;27;45430;-77
2022/03/09 00:41:14;;;;;;;;;61.25;47.50;;;;;8.65;90.26;101381.72;5111658;27;45202;-78
2022/03/09 00:43:39;;;;;;;;;57.75;47.00;;;;;8.60;93.54;101392.78;5126714;27;45048;-77
2022/03/09 00:46:04;;;;;;;;;57.50;43.75;;;;;8.76;92.60;101417.28;5120573;27;45483;-77
2022/03/09 00:48:30;;;;;;;;;59.25;47.75;;;;;8.58;93.38;101395.56;5119354;27;47674;-76
2022/03/09 00:50:59;;;;;;;;;59.25;47.75;;;;;8.73;92.38;101420.19;5115989;27;45064;-76
2022/03/09 00:53:24;;;;;;;;;56.50;43.50;;;;;7.00;91.80;101131.44;5114709;27;45254;-76
2022/03/09 00:55:50;;;;;;;;;56.25;45.25;;;;;8.71;90.23;101424.78;5128561;27;45181;-76
2022/03/09 00:58:15;;;;;;;;;61.75;48.75;;;;;7.28;95.09;101189.66;5132361;27;46088;-77
2022/03/09 01:00:40;;;;;;;;;63.50;47.75;;;;;7.87;93.87;101283.38;5121634;27;45205;-78
2022/03/09 01:03:06;;;;;;;;;55.25;46.25;;;;;7.97;92.55;101300.94;5131530;27;45162;-77
2022/03/09 01:05:31;;;;;;;;;55.00;43.00;;;;;8.71;92.13;101433.78;5130430;27;45349;-77
2022/03/09 01:07:56;;;;;;;;;65.25;47.75;;;;;8.70;92.18;101432.03;5121621;27;45929;-78
2022/03/09 01:10:22;;;;;;;;;60.00;47.50;;;;;8.06;92.10;101322.19;5132977;27;44939;-78
2022/03/09 01:12:47;;;;;;;;;66.50;52.75;;;;;8.69;93.01;101440.25;5129983;27;45015;-78
2022/03/09 01:15:13;;;;;;;;;59.75;49.00;;;;;8.41;93.38;101387.34;5121550;27;45018;-78
2022/03/09 01:17:38;;;;;;;;;60.50;47.25;;;;;8.60;94.55;101424.41;5118062;27;44919;-78
2022/03/09 01:20:04;;;;;;;;;63.50;47.00;;;;;7.39;96.35;101211.66;5132465;27;45305;-78
2022/03/09 01:22:30;;;;;;;;;61.25;45.75;;;;;8.64;98.00;101440.47;5134729;27;45193;-79
2022/03/09 01:24:55;;;;;;;;;62.25;49.50;;;;;8.29;96.46;101377.06;5125363;27;45055;-78
2022/03/09 01:27:21;;;;;;;;;60.50;49.00;;;;;8.62;95.93;101436.97;5126988;27;45504;-77
2022/03/09 01:29:46;;;;;;;;;64.75;49.00;;;;;8.56;96.25;101432.69;5119705;27;45596;-77
2022/03/09 01:32:11;;;;;;;;;61.25;46.75;;;;;8.62;97.89;101436.06;5132943;27;45493;-78
2022/03/09 01:34:37;;;;;;;;;58.75;48.50;;;;;8.47;96.94;101416.88;5107954;27;45094;-77
2022/03/09 01:37:02;;;;;;;;;60.50;48.75;;;;;8.17;98.37;101369.53;5111458;27;45906;-77
2022/03/09 01:39:28;;;;;;;;;66.75;51.00;;;;;8.56;96.54;101440.81;5111561;27;45142;-77
2022/03/09 01:41:53;;;;;;;;;66.50;52.25;;;;;8.55;96.94;101433.63;5110154;27;45169;-77
2022/03/09 01:44:21;;;;;;;;;59.00;47.50;;;;;7.79;98.20;101310.81;5089482;28;45242;-77
2022/03/09 01:46:48;;;;;;;;;63.50;51.75;;;;;8.52;97.73;101427.50;5083217;27;47752;-78
2022/03/09 01:49:14;;;;;;;;;55.50;45.25;;;;;7.96;97.79;101322.69;5111180;27;45218;-77
2022/03/09 01:51:42;;;;;;;;;61.25;48.00;;;;;8.42;98.72;101420.78;5091801;27;45257;-77
2022/03/09 01:54:07;;;;;;;;;65.00;49.50;;;;;7.84;98.82;101310.59;5109989;27;45315;-77
2022/03/09 01:56:34;;;;;;;;;64.25;50.00;;;;;8.47;99.80;101427.72;5110737;27;45151;-77
2022/03/09 01:59:04;;;;;;;;;60.75;48.00;;;;;8.46;100.00;101425.06;5096948;27;45264;-77
2022/03/09 02:01:30;;;;;;;;;63.50;50.25;;;;;8.47;100.00;101432.28;5106705;27;45213;-77
2022/03/09 02:03:57;;;;;;;;;63.25;47.75;;;;;7.49;100.00;101260.81;5094206;27;45211;-78
2022/03/09 02:06:23;;;;;;;;;62.25;48.50;;;;;8.01;100.00;101358.56;5104302;27;45699;-77
2022/03/09 02:11:34;;;;;;;;;62.75;52.50;;;;;8.40;100.00;101422.66;5108010;27;45213;-77
2022/03/09 02:14:03;;;;;;;;;66.00;48.25;;;;;8.30;100.00;101404.09;5105067;27;46124;-78
2022/03/09 02:16:28;;;;;;;;;65.00;50.75;;;;;8.37;100.00;101415.56;5099049;27;45905;-79
2022/03/09 02:18:54;;;;;;;;;67.00;51.00;;;;;8.35;100.00;101417.41;5104733;27;45222;-81
2022/03/09 02:21:22;;;;;;;;;65.00;51.25;;;;;8.03;100.00;101356.63;5111867;27;44980;-78
2022/03/09 02:23:48;;;;;;;;;69.25;52.50;;;;;8.33;100.00;101416.63;5088840;27;45202;-76
2022/03/09 02:26:13;;;;;;;;;67.75;48.50;;;;;7.65;100.00;101297.03;5097253;27;45986;-77
2022/03/09 02:28:44;;;;;;;;;64.25;50.75;;;;;7.99;100.00;101360.44;5110549;27;45176;-78
2022/03/09 02:31:09;;;;;;;;;62.25;47.25;;;;;8.26;100.00;101407.91;5092336;27;45225;-78
2022/03/09 02:33:35;;;;;;;;;68.25;53.25;;;;;7.35;100.00;101258.75;5123029;27;45303;-78
2022/03/09 02:36:00;;;;;;;;;60.50;49.00;;;;;8.29;100.00;101421.28;5118310;27;45715;-78
2022/03/09 02:38:26;;;;;;;;;64.50;50.00;;;;;7.26;100.00;101251.94;5130213;27;45122;-77
2022/03/09 02:40:53;;;;;;;;;62.75;50.50;;;;;8.15;100.00;101391.25;5120468;27;45149;-77
2022/03/09 02:43:19;;;;;;;;;67.00;50.50;;;;;8.28;100.00;101432.22;5142377;27;45155;-78
2022/03/09 02:45:45;;;;;;;;;58.00;45.25;;;;;8.27;100.00;101415.09;5129271;27;46158;-75
2022/03/09 02:48:11;;;;;;;;;63.25;50.25;;;;;7.43;100.00;101270.09;5109157;27;44998;-77
2022/03/09 02:50:36;;;;;;;;;64.25;50.00;;;;;7.96;100.00;101364.19;5128589;27;45170;-77
2022/03/09 02:53:01;;;;;;;;;62.75;47.25;;;;;8.26;100.00;101412.41;5130997;27;45046;-77
2022/03/09 02:55:27;;;;;;;;;63.50;47.50;;;;;7.69;100.00;101325.72;5112746;27;45665;-77
2022/03/09 02:57:52;;;;;;;;;62.25;45.25;;;;;8.24;100.00;101423.34;5110060;27;45080;-77
2022/03/09 03:00:17;;;;;;;;;65.25;49.00;;;;;7.84;100.00;101362.03;5117139;27;45391;-76
2022/03/09 03:02:43;;;;;;;;;61.25;48.75;;;;;7.09;100.00;101232.00;5128144;27;44946;-77
2022/03/09 03:05:09;;;;;;;;;59.00;45.00;;;;;8.26;100.00;101442.22;5112914;27;45641;-76
2022/03/09 03:07:35;;;;;;;;;60.75;47.00;;;;;8.10;100.00;101405.97;5128690;27;45207;-76
2022/03/09 03:10:01;;;;;;;;;51.00;38.50;;;;;8.25;100.00;101443.19;5130033;27;45028;-76
2022/03/09 03:12:26;;;;;;;;;50.75;39.25;;;;;7.79;100.00;101356.81;5120376;27;45145;-76
2022/03/09 03:14:51;;;;;;;;;55.75;39.50;;;;;8.27;100.00;101436.75;5126747;27;45588;-75
2022/03/09 03:17:17;;;;;;;;;45.75;38.50;;;;;6.66;100.00;101163.66;5119721;27;45195;-77
2022/03/09 03:19:42;;;;;;;;;51.50;39.50;;;;;8.05;100.00;101401.63;5125434;27;45102;-76
2022/03/09 03:22:07;;;;;;;;;43.25;37.00;;;;;8.05;100.00;101401.63;5116864;27;45257;-76
2022/03/09 03:24:33;;;;;;;;;36.50;31.00;;;;;7.76;100.00;101342.56;5118038;27;47491;-75
2022/03/09 03:26:59;;;;;;;;;44.50;36.75;;;;;7.96;100.00;101368.72;5120618;27;45792;-77
2022/03/09 03:29:24;;;;;;;;;46.25;35.75;;;;;8.36;100.00;101430.03;5122695;27;45339;-77
2022/03/09 03:31:50;;;;;;;;;43.25;37.75;;;;;7.68;100.00;101305.00;5118066;27;45189;-77
2022/03/09 03:34:15;;;;;;;;;51.75;40.75;;;;;8.25;100.00;101407.97;5100155;27;45260;-77
2022/03/09 03:36:41;;;;;;;;;45.50;40.25;;;;;8.32;100.00;101412.16;5089855;27;45206;-78
2022/03/09 03:39:06;;;;;;;;;55.75;46.25;;;;;8.00;100.00;101362.19;5095318;27;45206;-77
2022/03/09 03:41:31;;;;;;;;;51.75;41.00;;;;;7.99;100.00;101358.59;5109707;27;45179;-78
2022/03/09 03:43:57;;;;;;;;;55.75;44.00;;;;;7.60;100.00;101306.31;5087487;27;46029;-78
2022/03/09 03:46:22;;;;;;;;;58.00;46.25;;;;;7.33;100.00;101254.34;5097963;27;45398;-78
2022/03/09 03:48:47;;;;;;;;;63.75;45.75;;;;;8.20;100.00;101401.88;5110492;27;45189;-77
2022/03/09 03:51:13;;;;;;;;;59.75;45.75;;;;;6.93;100.00;101186.72;5104275;27;45301;-78
2022/03/09 03:53:38;;;;;;;;;58.50;45.25;;;;;8.34;100.00;101421.09;5106786;27;45075;-77
2022/03/09 03:56:05;;;;;;;;;57.75;48.00;;;;;7.15;100.00;101234.44;5091117;27;45175;-77
2022/03/09 03:58:30;;;;;;;;;59.50;47.75;;;;;8.33;100.00;101432.88;5104475;27;45471;-78
2022/03/09 04:00:58;;;;;;;;;56.50;47.25;;;;;8.32;100.00;101434.72;5101346;27;44840;-75
2022/03/09 04:03:24;;;;;;;;;64.00;50.00;;;;;8.24;100.00;101426.03;5102518;27;45534;-77
2022/03/09 04:05:49;;;;;;;;;60.00;47.75;;;;;7.48;100.00;101294.22;5088141;27;45084;-78
2022/03/09 04:08:15;;;;;;;;;63.25;51.50;;;;;6.44;100.00;101123.22;5101852;27;45170;-77
2022/03/09 04:10:40;;;;;;;;;64.50;49.75;;;;;8.26;100.00;101436.81;5097943;27;45257;-78
2022/03/09 04:13:05;;;;;;;;;62.75;50.00;;;;;8.24;100.00;101447.72;5106570;27;45380;-77
2022/03/09 04:15:32;;;;;;;;;60.50;48.00;;;;;8.07;100.00;101418.72;5100015;27;45060;-78
2022/03/09 04:17:57;;;;;;;;;65.75;49.25;;;;;8.21;100.00;101441.56;5092948;27;45263;-77
2022/03/09 04:20:23;;;;;;;;;65.00;47.50;;;;;8.12;100.00;101445.59;5069893;28;44938;-77
2022/03/09 04:22:48;;;;;;;;;61.75;49.00;;;;;8.19;100.00;101448.88;5106499;27;45164;-79
2022/03/09 04:25:14;;;;;;;;;65.25;49.00;;;;;8.18;100.00;101444.44;5085583;27;45275;-76
2022/03/09 04:27:40;;;;;;;;;62.25;47.50;;;;;8.17;100.00;101450.78;5113681;27;45036;-77
2022/03/09 04:30:05;;;;;;;;;63.75;50.75;;;;;7.85;100.00;101389.97;5097649;27;45429;-77
2022/03/09 04:32:32;;;;;;;;;63.75;50.25;;;;;7.57;100.00;101357.88;5095760;27;45702;-76
2022/03/09 04:34:57;;;;;;;;;60.25;48.25;;;;;8.15;100.00;101437.31;5111242;27;45071;-77
2022/03/09 04:37:23;;;;;;;;;61.50;48.25;;;;;8.14;100.00;101435.56;5123019;27;45030;-78
2022/03/09 04:39:48;;;;;;;;;58.25;45.00;;;;;8.06;100.00;101432.34;5121315;27;45540;-76
2022/03/09 04:42:14;;;;;;;;;60.75;47.50;;;;;7.83;100.00;101389.16;5127011;27;45066;-76
2022/03/09 04:44:39;;;;;;;;;63.75;49.75;;;;;8.11;100.00;101448.34;5108909;27;45170;-76
2022/03/09 04:47:05;;;;;;;;;68.25;51.75;;;;;8.10;100.00;101452.00;5122883;27;45397;-76
2022/03/09 04:49:30;;;;;;;;;61.50;51.00;;;;;7.74;100.00;101387.75;5129117;27;45067;-77
2022/03/09 04:51:56;;;;;;;;;61.75;48.25;;;;;7.70;100.00;101380.72;5125474;27;45600;-77
2022/03/09 04:54:21;;;;;;;;;66.75;52.75;;;;;6.96;100.00;101280.31;5126043;27;45431;-76
2022/03/09 04:56:47;;;;;;;;;64.75;50.00;;;;;8.03;100.00;101451.41;5112303;27;45082;-76
2022/03/09 04:59:13;;;;;;;;;68.75;52.00;;;;;8.00;100.00;101465.97;5129803;27;45344;-76
2022/03/09 05:01:38;;;;;;;;;70.75;54.00;;;;;7.60;100.00;101395.59;5124175;27;45825;-77
2022/03/09 05:04:04;;;;;;;;;62.00;50.00;;;;;7.98;100.00;101469.69;5127298;27;45018;-76
2022/03/09 05:06:29;;;;;;;;;65.25;52.00;;;;;7.45;100.00;101387.25;5127963;27;45077;-76
2022/03/09 05:08:54;;;;;;;;;66.75;51.50;;;;;7.57;100.00;101398.47;5109766;27;45288;-77
2022/03/09 05:11:20;;;;;;;;;67.50;51.00;;;;;6.58;100.00;101236.91;5107507;27;47100;-76
2022/03/09 05:13:45;;;;;;;;;60.75;51.00;;;;;7.91;100.00;101482.63;5115755;27;45020;-75
2022/03/09 05:16:11;;;;;;;;;61.75;49.00;;;;;7.43;100.00;101399.94;5114086;27;45018;-76
2022/03/09 05:18:40;;;;;;;;;57.50;46.75;;;;;7.39;100.00;101403.72;5127791;27;45016;-75
2022/03/09 05:21:05;;;;;;;;;66.50;49.50;;;;;7.87;100.00;101493.66;5116781;27;46211;-75
2022/03/09 05:23:31;;;;;;;;;58.50;45.75;;;;;7.86;100.00;101481.09;5109547;27;45514;-75
2022/03/09 05:25:57;;;;;;;;;57.00;45.75;;;;;7.85;100.00;101488.28;5113000;27;45533;-77
2022/03/09 05:28:23;;;;;;;;;57.00;46.25;;;;;6.85;100.00;101315.94;5100083;27;45355;-77
2022/03/09 05:30:48;;;;;;;;;57.25;44.50;;;;;7.65;100.00;101467.50;5103904;27;46651;-77
2022/03/09 05:33:13;;;;;;;;;57.25;46.00;;;;;7.76;100.00;101491.44;5105383;27;45454;-76
2022/03/09 05:35:39;;;;;;;;;52.50;42.00;;;;;6.98;100.00;101381.16;5082431;27;45429;-76
2022/03/09 05:38:04;;;;;;;;;60.50;45.25;;;;;7.72;100.00;101492.50;5077450;27;45315;-75
2022/03/09 05:40:30;;;;;;;;;56.75;43.75;;;;;7.69;100.00;101490.78;5098663;27;45729;-76
2022/03/09 05:42:55;;;;;;;;;55.75;45.50;;;;;7.38;100.00;101453.34;5098900;27;45538;-76
2022/03/09 05:45:21;;;;;;;;;53.25;46.00;;;;;7.66;100.00;101507.19;5089383;27;45400;-75
2022/03/09 05:47:46;;;;;;;;;54.00;41.50;;;;;6.73;100.00;101341.63;5088195;27;45530;-76
2022/03/09 05:50:12;;;;;;;;;64.00;50.00;;;;;7.32;100.00;101447.34;5087404;27;45879;-76
2022/03/09 05:52:37;;;;;;;;;60.00;46.00;;;;;7.57;100.00;101490.47;5090416;27;45575;-76
2022/03/09 05:55:03;;;;;;;;;58.00;44.75;;;;;7.64;100.00;101524.41;5091995;27;45044;-76
2022/03/09 05:57:28;;;;;;;;;56.00;45.00;;;;;7.62;100.00;101520.91;5094597;27;45476;-76
2022/03/09 05:59:54;;;;;;;;;54.25;46.25;;;;;7.00;100.00;101423.41;5097936;27;46385;-77
2022/03/09 06:02:19;;;;;;;;;58.75;47.75;;;;;7.58;100.00;101528.25;5107509;27;45467;-75
2022/03/09 06:04:45;;;;;;;;;53.25;43.00;;;;;7.57;100.00;101523.81;5087812;27;45116;-77
2022/03/09 06:07:11;;;;;;;;;53.00;45.00;;;;;7.18;100.00;101478.53;5095178;27;44805;-77
2022/03/09 06:09:36;;;;;;;;;61.25;47.50;;;;;6.86;100.00;101414.97;5099040;27;45202;-78
2022/03/09 06:12:02;;;;;;;;;56.25;43.50;;;;;6.89;100.00;101411.25;5104179;27;45888;-76
2022/03/09 06:14:27;;;;;;;;;59.75;44.25;;;;;7.53;100.00;101528.47;5098808;27;45414;-75
2022/03/09 06:16:53;;;;;;;;;58.00;47.25;;;;;6.83;100.00;101406.97;5106803;27;45040;-77
2022/03/09 06:19:18;;;;;;;;;51.75;43.00;;;;;7.48;100.00;101533.19;5108104;27;45644;-76
2022/03/09 06:21:44;;;;;;;;;59.75;43.75;;;;;7.35;100.00;101504.91;5093802;27;45373;-76
2022/03/09 06:24:10;;;;;;;;;54.00;41.75;;;;;7.38;100.00;101515.56;5095867;27;45167;-76
2022/03/09 06:26:39;;;;;;;;;55.50;44.75;;;;;7.47;100.00;101530.56;5105557;27;45037;-75
2022/03/09 06:29:05;;;;;;;;;56.50;43.75;;;;;6.86;100.00;101428.50;5075058;27;46938;-77
2022/03/09 06:31:31;;;;;;;;;51.00;43.00;;;;;6.48;100.00;101366.06;5102038;27;45294;-76
2022/03/09 06:33:56;;;;;;;;;52.50;42.50;;;;;6.33;100.00;101346.91;5112459;27;45166;-76
2022/03/09 06:36:22;;;;;;;;;56.25;46.00;;;;;7.46;100.00;101531.50;5112669;27;45353;-76
2022/03/09 06:38:47;;;;;;;;;53.50;42.25;;;;;7.45;100.00;101530.63;5102275;27;45680;-77
2022/03/09 06:41:13;;;;;;;;;58.75;45.00;;;;;7.46;100.00;101537.78;5103704;27;45421;-77
2022/03/09 06:43:38;;;;;;;;;51.25;39.00;;;;;7.34;100.00;101521.16;5104883;27;45769;-78
2022/03/09 06:46:04;;;;;;;;;54.25;42.25;;;;;7.10;100.00;101482.50;5114948;27;45574;-77
2022/03/09 06:48:29;;;;;;;;;51.75;43.00;;;;;7.48;100.00;101543.13;5090537;27;47038;-78
2022/03/09 06:50:55;;;;;;;;;57.50;42.50;;;;;6.96;100.00;101448.78;5125541;27;45654;-78
2022/03/09 06:53:20;;;;;;;;;53.75;45.00;;;;;7.49;100.00;101545.75;5127165;27;45377;-78
2022/03/09 06:55:46;;;;;;;;;54.75;45.00;;;;;7.34;100.00;101511.22;5128993;27;45174;-76
2022/03/09 06:58:11;;;;;;;;;56.50;44.00;;;;;7.51;100.00;101546.59;5130581;27;45396;-78
2022/03/09 07:00:37;;;;;;;;;57.00;43.25;;;;;7.52;100.00;101540.22;5110132;27;45073;-76
2022/03/09 07:03:05;;;;;;;;;55.75;42.75;;;;;7.36;100.00;101520.19;5110861;27;45240;-75
2022/03/09 07:05:31;;;;;;;;;56.25;44.25;;;;;7.30;100.00;101515.03;5108677;27;45329;-76
2022/03/09 07:07:58;;;;;;;;;61.25;46.75;;;;;7.43;100.00;101534.31;5121165;27;45545;-77
2022/03/09 07:10:24;;;;;;;;;52.75;43.00;;;;;6.95;100.00;101455.16;5122602;27;45117;-78
2022/03/09 07:12:49;;;;;;;;;53.25;42.50;;;;;7.57;100.00;101560.81;5130452;27;44986;-77
2022/03/09 07:15:15;;;;;;;;;58.75;45.50;;;;;7.21;100.00;101507.28;5093625;27;45468;-76
2022/03/09 07:17:41;;;;;;;;;62.25;49.00;;;;;7.18;100.00;101504.69;5092168;27;46728;-76
2022/03/09 07:20:07;;;;;;;;;40.75;38.00;;;;;7.56;100.00;101572.59;5107648;27;45624;-77
2022/03/09 07:22:33;;;;;;;;;59.75;47.25;;;;;7.62;100.00;101578.63;5094823;27;45428;-75
2022/03/09 07:24:58;;;;;;;;;59.25;48.00;;;;;7.64;100.00;101579.41;5097374;27;45684;-76
2022/03/09 07:27:23;;;;;;;;;65.00;49.50;;;;;7.39;100.00;101538.97;5093576;27;46464;-77
2022/03/09 07:29:49;;;;;;;;;70.75;56.00;;;;;7.68;100.00;101580.19;5093406;27;45528;-78
2022/03/09 07:32:15;;;;;;;;;53.25;45.25;;;;;7.62;100.00;101570.50;5094071;27;46213;-78
2022/03/09 07:34:41;;;;;;;;;66.75;50.50;;;;;7.60;100.00;101555.25;5105816;27;45698;-75
2022/03/09 07:37:06;;;;;;;;;53.50;44.50;;;;;7.07;100.00;101469.97;5097246;27;46256;-78
2022/03/09 07:39:32;;;;;;;;;49.25;40.50;;;;;7.27;100.00;101517.84;5090898;27;45534;-76
2022/03/09 07:41:57;;;;;;;;;56.50;45.00;;;;;7.84;100.00;101596.66;5095967;27;45736;-76
2022/03/09 07:44:24;;;;;;;;;52.75;41.50;;;;;7.88;100.00;101590.19;5101076;27;45644;-76
2022/03/09 07:46:49;;;;;;;;;53.50;45.50;;;;;7.31;100.00;101487.03;5100068;27;46374;-76
2022/03/09 07:49:17;;;;;;;;;56.00;44.75;;;;;7.98;100.00;101603.25;5100810;27;45528;-76
2022/03/09 07:51:43;;;;;;;;;50.25;40.75;;;;;7.92;100.00;101583.69;5101192;27;45541;-77
2022/03/09 07:54:08;;;;;;;;;56.50;43.25;;;;;7.44;100.00;101482.84;5103545;27;45872;-76
2022/03/09 07:56:35;;;;;;;;;55.75;44.25;;;;;8.14;100.00;101597.19;5099320;27;46629;-76
2022/03/09 07:59:02;;;;;;;;;48.75;39.50;;;;;8.05;100.00;101584.91;5097591;27;45599;-76
2022/03/09 08:01:27;;;;;;;;;49.00;41.00;;;;;8.23;100.00;101616.63;5107705;27;45572;-78
2022/03/09 08:03:54;;;;;;;;;47.00;39.00;;;;;7.84;100.00;101540.69;5107526;27;45476;-77
2022/03/09 08:06:20;;;;;;;;;44.00;38.00;;;;;7.78;100.00;101517.47;5103681;27;45769;-76
2022/03/09 08:08:45;;;;;;;;;54.00;41.75;;;;;8.05;100.00;101557.81;5095958;27;45625;-75
2022/03/09 08:11:11;;;;;;;;;46.00;38.00;;;;;7.91;100.00;101528.66;5102293;27;45426;-75
2022/03/09 08:13:36;;;;;;;;;37.25;34.75;;;;;7.87;100.00;101513.50;5096102;27;46196;-76
2022/03/09 08:16:01;;;;;;;;;39.50;36.00;;;;;8.15;100.00;101551.06;5104812;27;45457;-75
2022/03/09 08:18:27;;;;;;;;;45.00;37.75;;;;;8.44;100.00;101585.03;5110719;27;45553;-74
2022/03/09 08:20:52;;;;;;;;;40.00;37.00;;;;;8.65;100.00;101615.69;5110249;27;45469;-75
2022/03/09 08:23:17;;;;;;;;;43.50;36.75;;;;;8.50;100.00;101582.03;5114603;27;45325;-77
2022/03/09 08:25:43;;;;;;;;;37.75;34.75;;;;;8.53;100.00;101578.31;5101054;27;46446;-76
2022/03/09 08:28:08;;;;;;;;;32.50;29.75;;;;;8.78;100.00;101622.34;5110285;27;45661;-77
2022/03/09 08:30:35;;;;;;;;;41.75;36.00;;;;;8.83;100.00;101624.84;5112358;27;45465;-76
2022/03/09 08:33:00;;;;;;;;;34.00;32.00;;;;;8.26;100.00;101520.78;5118825;27;45774;-76
2022/03/09 08:35:26;;;;;;;;;37.50;36.50;;;;;8.91;100.00;101625.34;5092974;27;46126;-77
2022/03/09 08:37:52;;;;;;;;;47.25;37.25;;;;;8.88;100.00;101621.91;5097930;27;45711;-75
2022/03/09 08:40:18;;;;;;;;;45.00;35.50;;;;;9.00;100.00;101643.91;5094898;27;45488;-77
2022/03/09 08:42:43;;;;;;;;;51.00;39.75;;;;;8.55;100.00;101563.72;5098827;27;45719;-77
2022/03/09 08:45:09;;;;;;;;;36.25;28.50;;;;;8.24;100.00;101487.47;5096358;27;45470;-75
2022/03/09 08:47:34;;;;;;;;;35.75;30.50;;;;;9.10;100.00;101633.53;5089679;27;45757;-75
2022/03/09 08:49:59;;;;;;;;;33.25;30.75;;;;;9.13;100.00;101633.38;5089624;27;45544;-77
2022/03/09 08:52:25;;;;;;;;;36.50;32.00;;;;;9.15;100.00;101633.31;5103556;27;45442;-75
2022/03/09 08:54:53;;;;;;;;;37.75;31.75;;;;;9.17;100.00;101637.69;5089436;27;45450;-78
2022/03/09 08:57:20;;;;;;;;;31.75;28.00;;;;;8.86;100.00;101575.00;5094569;27;45396;-77
2022/03/09 08:59:45;;;;;;;;;29.25;27.75;;;;;9.06;100.00;101610.19;5110086;27;45831;-76
2022/03/09 09:02:11;;;;;;;;;39.75;30.50;;;;;9.25;100.00;101635.50;5101287;27;45524;-75
2022/03/09 09:04:38;;;;;;;;;27.00;24.75;;;;;9.29;100.00;101630.81;5108453;27;46296;-75
2022/03/09 09:07:04;;;;;;;;;32.50;27.25;;;;;8.96;100.00;101571.78;5109897;27;45694;-74
2022/03/09 09:09:29;;;;;;;;;26.75;24.25;;;;;8.95;100.00;101566.44;5100496;27;45530;-75
2022/03/09 09:11:55;;;;;;;;;28.50;26.00;;;;;9.38;100.00;101643.06;5092400;27;45459;-74
2022/03/09 09:14:21;;;;;;;;;31.50;26.00;;;;;8.81;100.00;101534.53;5089190;27;45722;-74
2022/03/09 09:16:47;;;;;;;;;29.75;21.75;;;;;9.43;100.00;101632.84;5089559;27;45404;-76
2022/03/09 09:19:12;;;;;;;;;28.00;24.50;;;;;8.94;100.00;101535.72;5093044;27;45530;-75
2022/03/09 09:21:38;;;;;;;;;28.75;25.75;;;;;9.50;100.00;101635.22;5109327;27;45550;-75
2022/03/09 09:24:04;;;;;;;;;27.75;26.25;;;;;9.53;100.00;101637.78;5108158;27;46497;-76
2022/03/09 09:26:29;;;;;;;;;29.25;26.75;;;;;9.56;100.00;101632.19;5093948;27;45513;-76
2022/03/09 09:28:55;;;;;;;;;36.75;27.75;;;;;9.59;100.00;101636.63;5094844;27;45736;-75
2022/03/09 09:31:20;;;;;;;;;30.00;27.25;;;;;9.64;100.00;101629.13;5109725;27;45919;-76
2022/03/09 09:33:46;;;;;;;;;28.00;26.50;;;;;9.65;100.00;101620.00;5105260;27;45463;-75
2022/03/09 09:36:11;;;;;;;;;32.50;26.75;;;;;9.69;100.00;101618.03;5109093;27;45746;-75
2022/03/09 09:38:37;;;;;;;;;25.50;22.50;;;;;9.69;100.00;101624.34;5105331;27;45725;-75
2022/03/09 09:41:02;;;;;;;;;27.00;26.00;;;;;9.44;100.00;101575.81;5113710;27;45549;-76
2022/03/09 09:43:28;;;;;;;;;22.50;21.50;;;;;8.88;100.00;101486.34;5113271;27;45360;-77
2022/03/09 09:45:53;;;;;;;;;29.25;28.75;;;;;9.73;100.00;101614.19;5113021;27;45532;-77
2022/03/09 09:48:19;;;;;;;;;27.25;26.25;;;;;9.02;100.00;101495.56;5113393;27;45847;-75
2022/03/09 09:50:46;;;;;;;;;30.50;27.50;;;;;9.75;100.00;101610.47;5112537;27;45739;-77
2022/03/09 09:53:13;;;;;;;;;24.50;22.75;;;;;9.75;100.00;101615.00;5107988;27;45866;-77
2022/03/09 09:55:40;;;;;;;;;25.25;24.50;;;;;9.78;100.00;101603.97;5107545;27;45534;-78
2022/03/09 09:58:06;;;;;;;;;19.25;16.25;;;;;9.00;100.00;101472.16;5113007;27;45523;-77
2022/03/09 10:00:32;;;;;;;;;24.00;18.25;;;;;9.62;100.00;101585.75;5092469;27;45957;-77
2022/03/09 10:02:58;;;;;;;;;21.75;19.25;;;;;9.27;100.00;101503.34;5092205;27;46411;-78
2022/03/09 10:05:24;;;;;;;;;22.00;18.25;;;;;9.86;100.00;101605.38;5091939;27;45364;-75
2022/03/09 10:08:05;;;;;;;;;19.25;18.00;;;;;9.93;100.00;101605.91;5092491;27;45558;-77
2022/03/09 10:10:32;;;;;;;;;18.25;17.25;;;;;9.17;100.00;101464.06;5104681;27;45980;-77
2022/03/09 10:13:21;;;;;;;;;14.25;14.25;;;;;9.78;100.00;101558.72;5091870;27;45799;-77
2022/03/09 10:16:18;;;;;;;;;20.00;17.25;;;;;10.11;100.00;101595.97;5094982;27;45390;-77
2022/03/09 10:19:02;;;;;;;;;20.50;20.25;;;;;9.89;100.00;101577.19;5099942;27;45632;-76
2022/03/09 10:21:35;;;;;;;;;18.25;17.25;;;;;9.28;100.00;101452.69;5093344;27;45578;-77
2022/03/09 10:24:01;;;;;;;;;16.50;15.75;;;;;10.23;100.00;101598.03;5094539;27;45356;-76
2022/03/09 10:26:43;;;;;;;;;21.75;19.25;;;;;9.95;100.00;101540.69;5100064;27;45758;-75
2022/03/09 10:29:18;;;;;;;;;17.75;15.75;;;;;9.77;100.00;101513.50;5097829;27;45614;-74
2022/03/09 10:31:47;;;;;;;;;20.00;18.50;;;;;10.31;100.00;101587.69;5111983;27;45492;-75
2022/03/09 10:34:19;;;;;;;;;21.00;18.50;;;;;9.96;100.00;101531.56;5102768;27;47497;-76
2022/03/09 10:37:02;;;;;;;;;19.50;19.00;;;;;10.10;100.00;101548.91;5115511;27;45449;-74
2022/03/09 10:39:31;;;;;;;;;15.25;15.25;;;;;10.43;100.00;101586.16;5105698;27;45460;-75
2022/03/09 10:42:01;;;;;;;;;13.50;13.50;;;;;10.30;100.00;101549.72;5091308;27;45627;-75
2022/03/09 10:44:47;;;;;;;;;23.75;18.25;;;;;10.14;100.00;101517.03;5091121;27;46117;-76
2022/03/09 10:47:29;;;;;;;;;17.00;15.25;;;;;10.41;100.00;101560.91;5091586;27;45867;-74
2022/03/09 10:50:13;;;;;;;;;16.00;14.00;;;;;10.54;100.00;101567.44;5091497;27;45553;-76
2022/03/09 10:52:56;;;;;;;;;28.00;23.25;;;;;10.61;100.00;101582.47;5091118;27;45430;-75
2022/03/09 10:55:26;;;;;;;;;19.75;17.25;;;;;10.64;100.00;101581.41;5094966;27;47095;-75
2022/03/09 10:58:05;;;;;;;;;18.25;15.00;;;;;10.67;100.00;101578.53;5111510;27;45461;-75
2022/03/09 11:00:53;;;;;;;;;22.00;17.25;;;;;10.70;100.00;101575.66;5091317;27;45747;-76
2022/03/09 11:03:27;;;;;;;;;18.75;18.25;;;;;10.75;100.00;101572.69;5091111;27;45427;-76
2022/03/09 11:05:52;;;;;;;;;17.50;16.50;;;;;10.79;100.00;101577.84;5091091;27;45568;-75
2022/03/09 11:08:20;;;;;;;;;20.75;15.50;;;;;10.82;100.00;101580.41;5091856;27;45444;-76
2022/03/09 11:10:46;;;;;;;;;19.50;17.50;;;;;10.84;100.00;101570.31;5111336;27;45838;-76